Playa Vista, California
Current Conditions -  °F | °C
As of 6:53 PM on Thursday 18 Dec 2014 (Local Time) from KLAX Reporting Station
Few Clouds Few Clouds  
Wind Chill: 56°   Ceiling: Unl
Heat Index: 56°   Visibility: 10mi
Dew Point: 52°   Wind: 3mph
Humidity: 87%   Direction: NA
Pressure: 30.19"   Gusts: NA
Location:  33.9534°N, 118.399°W
Report Text: KLAX 190253Z VRB03KT 10SM FEW030 13/11 A3019 RMK AO2 SLP223 T01330111 53013
Loading
Personal Weather Stations






























Interactive Weather Map New forecast layout! Learn more

10-Day Weather Forecast

Advertisements
Track Severe Weather on mobile